Time;durP1;ratioP1;P1;durP2;ratioP2;P2;SDS_P1;SDS_P2;PMS_P1;PMS_P2;Temp;Humidity;BMP_temperature;BMP_pressure;BME280_temperature;BME280_humidity;BME280_pressure;Samples;Min_cycle;Max_cycle;Signal;HPM_P1;HPM_P2
2023/03/06 00:00:28;;;;;;;5.65;1.27;;;3.00;99.90;;;;;;5035412;28;20052;-88
2023/03/06 00:02:54;;;;;;;5.78;0.85;;;2.50;99.90;;;;;;5035498;28;20037;-88
2023/03/06 00:05:21;;;;;;;9.20;1.00;;;2.80;99.90;;;;;;5026762;28;20506;-89
2023/03/06 00:07:46;;;;;;;5.88;1.00;;;2.50;99.90;;;;;;5014916;28;20511;-90
2023/03/06 00:10:15;;;;;;;5.35;1.45;;;2.80;99.90;;;;;;5014815;28;20061;-90
2023/03/06 00:12:41;;;;;;;3.58;0.88;;;2.80;99.90;;;;;;5015622;28;20171;-90
2023/03/06 00:15:08;;;;;;;3.55;1.13;;;2.30;99.90;;;;;;5016006;28;20053;-91
2023/03/06 00:17:33;;;;;;;5.78;1.02;;;2.40;99.90;;;;;;5014951;28;20080;-92
2023/03/06 00:19:59;;;;;;;4.18;0.80;;;3.00;99.90;;;;;;5016066;28;20076;-92
2023/03/06 00:22:25;;;;;;;1.73;0.60;;;3.10;99.90;;;;;;5015767;28;20052;-91
2023/03/06 00:24:52;;;;;;;4.18;0.85;;;2.30;99.90;;;;;;5014454;28;20049;-90
2023/03/06 00:27:19;;;;;;;2.63;0.80;;;2.60;99.90;;;;;;5015629;28;20049;-91
2023/03/06 00:29:47;;;;;;;2.83;0.88;;;2.80;99.90;;;;;;5015284;28;20076;-89
2023/03/06 00:32:14;;;;;;;4.10;1.15;;;2.20;99.90;;;;;;5014708;28;20038;-90
2023/03/06 00:34:40;;;;;;;3.58;0.75;;;2.00;99.90;;;;;;5015072;28;20076;-88
2023/03/06 00:37:06;;;;;;;3.95;1.00;;;1.90;99.90;;;;;;5014879;28;20088;-90
2023/03/06 00:39:31;;;;;;;2.13;0.95;;;2.20;99.90;;;;;;5013720;28;20041;-90
2023/03/06 00:41:57;;;;;;;2.97;0.80;;;2.30;99.90;;;;;;5015343;28;20554;-89
2023/03/06 00:44:23;;;;;;;2.40;0.70;;;2.10;99.90;;;;;;5014847;28;20037;-89
2023/03/06 00:46:48;;;;;;;2.45;0.73;;;1.90;99.90;;;;;;5014614;28;20152;-89
2023/03/06 00:49:14;;;;;;;2.08;0.70;;;2.40;99.90;;;;;;5015688;28;20148;-89
2023/03/06 00:51:40;;;;;;;6.30;1.40;;;2.20;99.90;;;;;;5014177;28;20428;-88
2023/03/06 00:54:05;;;;;;;5.32;1.00;;;2.70;99.90;;;;;;5013331;28;20086;-87
2023/03/06 00:56:31;;;;;;;3.08;0.77;;;1.90;99.90;;;;;;5016867;28;20044;-88
2023/03/06 00:58:57;;;;;;;3.80;0.88;;;1.90;99.90;;;;;;5029702;28;20037;-88
2023/03/06 01:01:23;;;;;;;5.22;1.08;;;1.90;99.90;;;;;;5030501;28;20073;-88
2023/03/06 01:03:48;;;;;;;3.90;0.90;;;2.80;99.90;;;;;;5031085;28;20060;-89
2023/03/06 01:06:14;;;;;;;4.97;1.10;;;2.50;99.90;;;;;;5045831;28;20053;-89
2023/03/06 01:08:40;;;;;;;3.35;0.98;;;2.00;99.90;;;;;;5050448;28;20536;-88
2023/03/06 01:11:06;;;;;;;4.82;0.90;;;2.80;99.90;;;;;;5050472;28;20463;-88
2023/03/06 01:13:31;;;;;;;5.35;1.10;;;2.50;99.90;;;;;;5049968;28;20041;-89
2023/03/06 01:16:11;;;;;;;5.80;1.17;;;2.70;99.90;;;;;;5051461;28;20455;-87
2023/03/06 01:18:37;;;;;;;4.50;1.00;;;1.90;99.90;;;;;;5034002;28;20053;-89
2023/03/06 01:21:04;;;;;;;3.67;0.88;;;1.90;99.90;;;;;;5050009;28;20052;-90
2023/03/06 01:23:30;;;;;;;4.18;1.10;;;1.90;99.90;;;;;;5050897;28;20451;-89
2023/03/06 01:25:56;;;;;;;1.80;0.82;;;1.90;99.90;;;;;;5050403;28;20041;-89
2023/03/06 01:28:22;;;;;;;3.30;0.90;;;1.90;99.90;;;;;;5049890;28;20053;-89
2023/03/06 01:30:47;;;;;;;2.53;0.73;;;2.90;99.90;;;;;;5050539;28;20048;-89
2023/03/06 01:33:13;;;;;;;2.90;1.05;;;2.00;99.90;;;;;;5049874;28;20041;-90
2023/03/06 01:35:39;;;;;;;2.85;0.90;;;2.20;99.90;;;;;;5049941;28;20234;-90
2023/03/06 01:38:04;;;;;;;2.17;0.90;;;1.90;99.90;;;;;;5050712;28;20045;-90
2023/03/06 01:40:32;;;;;;;6.68;1.10;;;2.00;99.90;;;;;;5048782;28;20562;-90
2023/03/06 01:42:57;;;;;;;2.97;1.15;;;2.60;99.90;;;;;;5050485;28;20080;-90
2023/03/06 01:45:23;;;;;;;3.92;1.33;;;1.90;99.90;;;;;;5049817;28;20076;-90
2023/03/06 01:47:49;;;;;;;3.35;0.90;;;2.20;99.90;;;;;;5050180;28;20107;-90
2023/03/06 01:50:15;;;;;;;1.80;0.75;;;2.30;99.90;;;;;;5050327;28;20041;-90
2023/03/06 01:52:48;;;;;;;4.35;1.15;;;2.60;99.90;;;;;;5050109;28;20040;-89
2023/03/06 01:55:19;;;;;;;4.32;1.40;;;2.00;99.90;;;;;;5048809;28;20052;-90
2023/03/06 01:57:51;;;;;;;2.30;0.90;;;1.80;99.90;;;;;;5038036;28;20048;-90
2023/03/06 02:00:20;;;;;;;5.60;1.30;;;1.90;99.90;;;;;;5033033;28;20413;-90
2023/03/06 02:03:00;;;;;;;2.08;0.80;;;1.70;99.90;;;;;;5032955;28;20045;-90
2023/03/06 02:05:26;;;;;;;4.38;1.08;;;1.70;99.90;;;;;;5033047;28;20150;-90
2023/03/06 02:07:53;;;;;;;1.58;0.90;;;1.60;99.90;;;;;;5033144;28;20095;-90
2023/03/06 02:10:19;;;;;;;1.85;1.00;;;2.20;99.90;;;;;;5031413;28;20069;-89
2023/03/06 02:12:47;;;;;;;1.98;1.00;;;1.50;99.90;;;;;;5033129;28;20041;-89
2023/03/06 02:15:15;;;;;;;4.40;0.90;;;1.90;99.90;;;;;;5033334;28;20150;-89
2023/03/06 02:17:42;;;;;;;2.15;0.95;;;1.50;99.90;;;;;;5033027;28;20037;-89
2023/03/06 02:20:21;;;;;;;1.85;0.82;;;1.50;99.90;;;;;;5032118;28;20045;-90
2023/03/06 02:23:03;;;;;;;2.22;0.75;;;2.40;99.90;;;;;;5031481;28;20139;-89
2023/03/06 02:25:35;;;;;;;1.25;0.80;;;1.40;99.90;;;;;;5032034;28;20447;-89
2023/03/06 02:28:02;;;;;;;2.08;0.88;;;1.40;99.90;;;;;;5032973;28;20095;-90
2023/03/06 02:30:28;;;;;;;2.33;0.80;;;1.40;99.90;;;;;;5032212;28;20059;-89
2023/03/06 02:32:55;;;;;;;2.13;0.88;;;1.90;99.90;;;;;;5033115;28;20049;-90
2023/03/06 02:35:25;;;;;;;4.00;1.08;;;1.80;99.90;;;;;;5032657;28;20418;-90
2023/03/06 02:37:52;;;;;;;2.42;1.10;;;1.40;99.90;;;;;;5032599;28;20036;-90
2023/03/06 02:40:20;;;;;;;1.40;0.80;;;1.60;99.90;;;;;;5031754;28;20049;-90
2023/03/06 02:42:49;;;;;;;1.98;0.80;;;2.00;99.90;;;;;;5033161;28;20045;-88
2023/03/06 02:45:20;;;;;;;3.30;1.00;;;2.40;99.90;;;;;;5031485;28;20098;-90
2023/03/06 02:47:45;;;;;;;2.60;1.00;;;1.90;99.90;;;;;;5032850;28;20045;-90
2023/03/06 02:50:11;;;;;;;2.83;1.48;;;2.50;99.90;;;;;;5032135;28;20143;-90
2023/03/06 02:52:37;;;;;;;1.45;0.77;;;2.10;99.90;;;;;;5032658;28;20056;-90
2023/03/06 02:55:03;;;;;;;2.47;1.02;;;2.10;99.90;;;;;;5032216;28;20063;-90
2023/03/06 02:57:29;;;;;;;3.15;0.88;;;1.40;99.90;;;;;;5042478;28;20083;-90
2023/03/06 02:59:54;;;;;;;0.95;0.60;;;1.60;99.90;;;;;;5031388;28;20048;-89
2023/03/06 03:02:20;;;;;;;2.40;0.90;;;2.50;99.90;;;;;;5032331;28;20693;-91
2023/03/06 03:04:46;;;;;;;3.92;1.02;;;1.50;99.90;;;;;;5032638;28;20064;-90
2023/03/06 03:07:11;;;;;;;3.08;1.42;;;1.70;99.90;;;;;;5032298;28;20127;-90
2023/03/06 03:09:37;;;;;;;1.98;1.05;;;2.00;99.90;;;;;;5032197;28;20053;-89
2023/03/06 03:12:05;;;;;;;3.72;1.35;;;2.10;99.90;;;;;;5033009;28;20516;-90
2023/03/06 03:14:31;;;;;;;4.05;1.30;;;1.50;99.90;;;;;;5032361;28;20076;-89
2023/03/06 03:16:57;;;;;;;4.03;1.52;;;2.40;99.90;;;;;;5033156;28;20045;-90
2023/03/06 03:19:22;;;;;;;3.72;1.27;;;1.50;99.90;;;;;;5032291;28;20048;-90
2023/03/06 03:21:49;;;;;;;3.22;1.40;;;1.60;99.90;;;;;;5034037;28;20041;-90
2023/03/06 03:24:15;;;;;;;3.95;1.50;;;2.30;99.90;;;;;;5036720;28;20381;-90
2023/03/06 03:26:41;;;;;;;3.53;1.60;;;2.60;99.90;;;;;;5035344;28;20489;-90
2023/03/06 03:29:08;;;;;;;2.88;1.50;;;1.50;99.90;;;;;;5036112;28;20044;-90
2023/03/06 03:31:34;;;;;;;2.85;1.30;;;2.00;99.90;;;;;;5036540;28;20052;-91
2023/03/06 03:34:00;;;;;;;5.10;2.03;;;1.50;99.90;;;;;;5036120;28;20046;-91
2023/03/06 03:36:26;;;;;;;4.05;1.40;;;2.20;99.90;;;;;;5036653;28;20041;-91
2023/03/06 03:38:52;;;;;;;3.90;1.55;;;1.50;99.90;;;;;;5035560;28;20102;-90
2023/03/06 03:41:18;;;;;;;3.42;1.30;;;1.90;99.90;;;;;;5036182;28;20047;-90
2023/03/06 03:43:43;;;;;;;4.28;1.30;;;2.00;99.90;;;;;;5036130;28;20040;-91
2023/03/06 03:46:10;;;;;;;3.08;1.50;;;2.20;99.90;;;;;;5036493;28;20036;-90
2023/03/06 03:48:36;;;;;;;4.57;1.50;;;1.60;99.90;;;;;;5035537;28;20041;-90
2023/03/06 03:51:09;;;;;;;7.00;1.50;;;2.40;99.90;;;;;;5035794;28;20067;-90
2023/03/06 03:53:35;;;;;;;3.70;1.83;;;1.20;99.90;;;;;;5035583;28;20098;-90
2023/03/06 03:56:00;;;;;;;3.42;1.55;;;1.90;99.90;;;;;;5036378;28;20046;-91
2023/03/06 03:58:26;;;;;;;3.88;1.35;;;2.40;99.90;;;;;;5056253;28;20040;-91
2023/03/06 04:00:52;;;;;;;6.18;1.90;;;2.10;99.90;;;;;;5054661;28;20162;-91
2023/03/06 04:03:17;;;;;;;3.90;1.48;;;1.20;99.90;;;;;;5055311;28;20052;-92
2023/03/06 04:05:43;;;;;;;3.35;1.50;;;1.80;99.90;;;;;;5056322;28;20040;-90
2023/03/06 04:08:09;;;;;;;7.30;1.73;;;2.10;99.90;;;;;;5055498;28;20488;-91
2023/03/06 04:10:35;;;;;;;3.03;1.30;;;1.50;99.90;;;;;;5055166;28;20044;-92
2023/03/06 04:13:01;;;;;;;5.80;1.55;;;1.70;99.90;;;;;;5055718;28;20104;-91
2023/03/06 04:15:27;;;;;;;5.70;1.33;;;2.00;99.90;;;;;;5055687;28;20548;-92
2023/03/06 04:17:53;;;;;;;3.15;1.60;;;0.90;99.90;;;;;;5055883;28;20041;-91
2023/03/06 04:20:18;;;;;;;2.92;1.40;;;1.00;99.90;;;;;;5055045;28;20388;-90
2023/03/06 04:22:44;;;;;;;4.60;1.30;;;0.80;99.90;;;;;;5055280;28;20040;-91
2023/03/06 04:25:10;;;;;;;2.45;1.13;;;0.80;99.90;;;;;;5054737;28;20052;-92
2023/03/06 04:27:35;;;;;;;2.58;1.20;;;1.70;99.90;;;;;;5055837;28;20045;-90
2023/03/06 04:30:01;;;;;;;3.08;1.77;;;1.60;99.90;;;;;;5054319;28;20066;-90
2023/03/06 04:32:27;;;;;;;3.45;1.52;;;0.70;99.90;;;;;;5055185;28;20079;-90
2023/03/06 04:34:52;;;;;;;4.10;1.77;;;0.70;99.90;;;;;;5054639;28;20131;-89
2023/03/06 04:37:20;;;;;;;3.75;1.65;;;1.50;99.90;;;;;;5054456;28;20066;-89
2023/03/06 04:39:46;;;;;;;3.63;1.70;;;1.90;99.90;;;;;;5054231;28;20091;-89
2023/03/06 04:42:12;;;;;;;4.03;1.77;;;1.30;99.90;;;;;;5057514;28;20062;-89
2023/03/06 04:44:38;;;;;;;8.52;1.98;;;1.10;99.90;;;;;;5054407;28;20041;-89
2023/03/06 04:47:04;;;;;;;4.25;1.45;;;1.80;99.90;;;;;;5054833;28;20040;-90
2023/03/06 04:49:29;;;;;;;3.60;1.60;;;0.80;99.90;;;;;;5054905;28;20487;-90
2023/03/06 04:51:55;;;;;;;3.55;1.40;;;1.60;99.90;;;;;;5054741;28;20087;-90
2023/03/06 04:54:21;;;;;;;4.03;1.50;;;1.80;99.90;;;;;;5054500;28;20506;-90
2023/03/06 04:56:46;;;;;;;6.57;1.88;;;0.90;99.90;;;;;;5054559;28;20048;-90
2023/03/06 04:59:12;;;;;;;4.95;1.70;;;1.50;99.90;;;;;;5054011;28;20044;-91
2023/03/06 05:01:38;;;;;;;4.55;1.27;;;1.60;99.90;;;;;;5054160;28;20072;-90
2023/03/06 05:04:04;;;;;;;5.35;1.70;;;1.00;99.90;;;;;;5054186;28;20041;-89
2023/03/06 05:06:29;;;;;;;3.92;1.63;;;1.50;99.90;;;;;;5053929;28;20052;-89
2023/03/06 05:08:55;;;;;;;4.05;1.60;;;1.40;99.90;;;;;;5054355;28;20081;-90
2023/03/06 05:11:21;;;;;;;3.55;1.48;;;1.00;99.90;;;;;;5054794;28;20052;-90
2023/03/06 05:13:47;;;;;;;3.38;1.63;;;1.00;99.90;;;;;;5053854;28;20528;-91
2023/03/06 05:16:12;;;;;;;4.00;1.42;;;1.90;99.90;;;;;;5054427;28;20571;-89
2023/03/06 05:18:38;;;;;;;3.38;1.55;;;1.20;99.90;;;;;;5053973;28;20131;-88
2023/03/06 05:21:05;;;;;;;6.57;2.08;;;1.20;99.90;;;;;;5053604;28;20087;-89
2023/03/06 05:23:33;;;;;;;4.57;1.92;;;1.10;99.90;;;;;;5053953;28;20102;-90
2023/03/06 05:25:59;;;;;;;3.90;1.98;;;1.20;99.90;;;;;;5053368;28;20045;-90
2023/03/06 05:28:27;;;;;;;7.30;2.22;;;0.90;99.90;;;;;;5054430;28;20041;-90
2023/03/06 05:30:53;;;;;;;5.80;2.10;;;0.90;99.90;;;;;;5053713;28;20373;-92
2023/03/06 05:33:18;;;;;;;6.97;2.25;;;1.40;99.90;;;;;;5046765;28;20087;-89
2023/03/06 05:35:46;;;;;;;6.57;2.60;;;1.40;99.90;;;;;;5037651;28;20504;-89
2023/03/06 05:38:13;;;;;;;6.72;2.08;;;1.20;99.90;;;;;;5050144;28;20076;-90
2023/03/06 05:40:40;;;;;;;4.43;2.00;;;1.10;99.90;;;;;;5050392;28;20067;-90
2023/03/06 05:43:07;;;;;;;5.47;2.08;;;1.10;99.90;;;;;;5050633;28;20092;-91
2023/03/06 05:45:33;;;;;;;5.28;2.03;;;1.60;99.90;;;;;;5050154;28;20037;-90
2023/03/06 05:47:59;;;;;;;5.50;2.20;;;0.80;99.90;;;;;;5050617;28;20048;-90
2023/03/06 05:50:25;;;;;;;3.67;1.80;;;1.20;99.90;;;;;;5050779;28;20059;-91
2023/03/06 05:52:50;;;;;;;8.27;2.83;;;1.90;99.90;;;;;;5050559;28;20132;-90
2023/03/06 05:55:18;;;;;;;6.53;2.22;;;0.80;99.90;;;;;;5049417;28;20053;-89
2023/03/06 05:57:44;;;;;;;7.50;3.10;;;0.80;99.90;;;;;;5050735;28;20041;-90
2023/03/06 06:00:10;;;;;;;6.22;2.97;;;1.80;99.90;;;;;;5049504;28;20037;-90
2023/03/06 06:02:36;;;;;;;7.07;2.78;;;0.80;99.90;;;;;;5049847;28;20056;-90
2023/03/06 06:05:02;;;;;;;6.10;3.40;;;0.80;99.90;;;;;;5050151;28;20061;-91
2023/03/06 06:07:28;;;;;;;9.00;3.50;;;0.80;99.90;;;;;;5050300;28;20481;-90
2023/03/06 06:09:54;;;;;;;7.63;3.63;;;1.40;99.90;;;;;;5032878;28;20060;-90
2023/03/06 06:12:20;;;;;;;9.68;3.97;;;1.60;99.90;;;;;;5050225;28;20045;-90
2023/03/06 06:14:45;;;;;;;6.82;3.53;;;0.60;99.90;;;;;;5049846;28;20041;-89
2023/03/06 06:17:11;;;;;;;8.05;3.95;;;0.90;99.90;;;;;;5049468;28;20044;-88
2023/03/06 06:19:37;;;;;;;7.97;4.57;;;1.40;99.90;;;;;;5049825;28;20051;-89
2023/03/06 06:22:04;;;;;;;9.18;3.92;;;0.40;99.90;;;;;;5051158;28;20044;-89
2023/03/06 06:24:30;;;;;;;7.10;3.60;;;0.40;99.90;;;;;;5049122;28;20519;-90
2023/03/06 06:26:58;;;;;;;7.45;3.10;;;1.00;99.90;;;;;;5050306;28;20079;-90
2023/03/06 06:29:24;;;;;;;6.32;2.70;;;0.80;99.90;;;;;;5049706;28;20381;-90
2023/03/06 06:31:51;;;;;;;5.18;2.60;;;1.40;99.90;;;;;;5049049;28;20072;-89
2023/03/06 06:34:17;;;;;;;6.30;2.90;;;0.50;99.90;;;;;;5049665;28;20044;-89
2023/03/06 06:36:43;;;;;;;5.75;2.53;;;0.40;99.90;;;;;;5038676;28;20064;-89
2023/03/06 06:39:12;;;;;;;8.55;2.85;;;0.80;99.90;;;;;;5032214;28;20119;-88
2023/03/06 06:41:38;;;;;;;6.03;2.72;;;0.10;99.90;;;;;;5032512;28;20044;-88
2023/03/06 06:44:06;;;;;;;6.97;2.75;;;0.00;99.90;;;;;;5031947;28;20045;-90
2023/03/06 06:46:33;;;;;;;7.10;2.78;;;0.00;99.90;;;;;;5034550;28;20049;-91
2023/03/06 06:49:01;;;;;;;15.27;2.97;;;0.80;99.90;;;;;;5032492;28;20045;-88
2023/03/06 06:51:28;;;;;;;5.18;2.38;;;0.40;99.90;;;;;;5032164;28;20056;-91
2023/03/06 06:53:54;;;;;;;7.00;2.50;;;0.00;99.90;;;;;;5033009;28;20176;-89
2023/03/06 06:56:20;;;;;;;4.72;2.70;;;0.50;99.90;;;;;;5032010;28;20061;-89
2023/03/06 06:58:46;;;;;;;5.53;3.15;;;0.80;99.90;;;;;;5032247;28;20033;-90
2023/03/06 07:01:12;;;;;;;9.57;3.90;;;-0.10;99.90;;;;;;5032779;28;20048;-90
2023/03/06 07:03:39;;;;;;;9.35;4.95;;;0.20;99.90;;;;;;5031813;28;20071;-90
2023/03/06 07:06:06;;;;;;;9.02;4.38;;;0.60;99.90;;;;;;5032074;28;20053;-90
2023/03/06 07:08:32;;;;;;;7.22;4.28;;;-0.10;99.90;;;;;;5032621;28;20037;-88
2023/03/06 07:10:58;;;;;;;10.15;4.40;;;0.60;99.90;;;;;;5032397;28;20111;-89
2023/03/06 07:13:24;;;;;;;8.00;4.70;;;-0.20;99.90;;;;;;5033694;28;20041;-90
2023/03/06 07:15:50;;;;;;;10.35;4.03;;;-0.10;99.90;;;;;;5036909;28;20411;-90
2023/03/06 07:18:16;;;;;;;7.22;3.88;;;0.90;99.90;;;;;;5049342;28;20091;-91
2023/03/06 07:20:41;;;;;;;6.85;3.60;;;0.20;99.90;;;;;;5040613;28;20033;-90
2023/03/06 07:23:11;;;;;;;8.63;3.38;;;0.30;99.90;;;;;;5042012;28;20049;-90
2023/03/06 07:25:37;;;;;;;8.52;3.90;;;0.30;99.90;;;;;;5039863;28;20525;-90
2023/03/06 07:28:02;;;;;;;7.97;3.20;;;0.50;99.90;;;;;;5043572;28;20116;-89
2023/03/06 07:30:28;;;;;;;7.03;3.55;;;0.60;99.90;;;;;;5039640;28;20087;-91
2023/03/06 07:32:56;;;;;;;7.00;2.97;;;1.10;99.90;;;;;;5031565;28;20086;-91
2023/03/06 07:35:22;;;;;;;8.18;2.78;;;0.20;99.90;;;;;;5032183;28;20037;-90
2023/03/06 07:37:48;;;;;;;10.00;3.08;;;0.30;99.90;;;;;;5032619;28;20497;-90
2023/03/06 07:40:14;;;;;;;5.80;2.92;;;0.70;99.90;;;;;;5031210;28;20076;-90
2023/03/06 07:42:39;;;;;;;6.25;3.10;;;0.50;99.90;;;;;;5032478;28;20045;-91
2023/03/06 07:45:07;;;;;;;5.38;2.88;;;1.10;99.90;;;;;;5031956;28;20104;-90
2023/03/06 07:47:33;;;;;;;6.50;2.83;;;0.70;99.90;;;;;;5032058;28;20041;-89
2023/03/06 07:50:02;;;;;;;5.53;2.78;;;0.90;99.90;;;;;;5032388;28;20047;-89
2023/03/06 07:52:28;;;;;;;5.57;3.00;;;0.90;99.90;;;;;;5032569;28;20127;-89
2023/03/06 07:54:54;;;;;;;4.75;2.42;;;1.30;99.90;;;;;;5031168;28;20041;-88
2023/03/06 07:57:19;;;;;;;8.02;2.30;;;1.00;99.90;;;;;;5032199;28;20098;-88
2023/03/06 07:59:45;;;;;;;5.72;3.03;;;1.10;99.90;;;;;;5048619;28;20048;-88
2023/03/06 08:02:11;;;;;;;5.38;2.45;;;2.00;99.90;;;;;;5031206;28;20465;-88
2023/03/06 08:04:37;;;;;;;5.18;2.40;;;1.20;99.90;;;;;;5033719;28;20060;-89
2023/03/06 08:07:03;;;;;;;5.40;2.67;;;2.00;99.90;;;;;;5035458;28;20189;-89
2023/03/06 08:09:30;;;;;;;8.82;2.67;;;1.40;99.90;;;;;;5036533;28;20388;-88
2023/03/06 08:11:56;;;;;;;4.65;2.38;;;2.20;99.90;;;;;;5039004;28;20410;-89
2023/03/06 08:14:22;;;;;;;5.93;2.47;;;1.90;99.90;;;;;;5038315;28;20131;-90
2023/03/06 08:16:49;;;;;;;6.57;2.70;;;1.80;99.90;;;;;;5038701;28;20135;-89
2023/03/06 08:19:15;;;;;;;9.60;2.80;;;2.10;99.90;;;;;;5038892;28;20037;-89
2023/03/06 08:21:41;;;;;;;6.05;2.42;;;2.10;99.90;;;;;;5038472;28;20115;-91
2023/03/06 08:24:09;;;;;;;5.47;2.40;;;2.20;99.90;;;;;;5038729;28;20052;-91
2023/03/06 08:26:38;;;;;;;4.60;2.20;;;2.40;99.90;;;;;;5039177;28;20086;-91
2023/03/06 08:29:04;;;;;;;6.10;1.77;;;2.60;99.90;;;;;;5038684;28;20052;-90
2023/03/06 08:31:36;;;;;;;5.43;1.88;;;3.50;99.90;;;;;;5039205;28;20088;-90
2023/03/06 08:34:05;;;;;;;4.63;1.40;;;2.70;99.90;;;;;;5039186;28;20128;-91
2023/03/06 08:36:31;;;;;;;4.25;1.30;;;2.70;99.90;;;;;;5045432;28;20131;-90
2023/03/06 08:38:57;;;;;;;8.13;1.60;;;2.70;99.90;;;;;;5037204;28;20135;-90
2023/03/06 08:41:24;;;;;;;5.13;1.50;;;3.20;99.90;;;;;;5038378;28;20389;-90
2023/03/06 08:43:50;;;;;;;4.18;1.33;;;2.60;99.90;;;;;;5037735;28;20041;-93
2023/03/06 08:46:17;;;;;;;5.93;1.67;;;2.60;99.90;;;;;;5037982;28;20029;-93
2023/03/06 08:48:46;;;;;;;4.15;1.80;;;3.00;99.90;;;;;;5038469;28;20127;-92
2023/03/06 08:51:12;;;;;;;6.47;1.90;;;2.50;99.90;;;;;;5040586;28;20032;-94
2023/03/06 08:53:38;;;;;;;4.97;1.85;;;3.40;99.90;;;;;;5038559;28;20126;-94
2023/03/06 08:56:04;;;;;;;12.32;1.98;;;2.60;99.90;;;;;;5054343;28;20140;-92
2023/03/06 08:58:30;;;;;;;5.82;2.00;;;2.80;99.90;;;;;;5037937;28;20052;-92
2023/03/06 09:00:56;;;;;;;8.40;2.15;;;2.90;99.90;;;;;;5038655;28;20101;-93
2023/03/06 09:03:22;;;;;;;5.20;1.85;;;3.00;99.90;;;;;;5038063;28;20044;-92
2023/03/06 09:05:49;;;;;;;7.10;1.92;;;3.40;99.90;;;;;;5054378;28;20059;-93
2023/03/06 09:08:15;;;;;;;4.65;1.48;;;3.20;99.90;;;;;;5054535;28;20044;-92
2023/03/06 09:10:45;;;;;;;3.60;1.88;;;3.40;99.90;;;;;;5037201;28;20136;-89
2023/03/06 09:13:10;;;;;;;5.85;1.75;;;3.30;99.90;;;;;;5037685;28;20468;-90
2023/03/06 09:15:36;;;;;;;7.30;2.15;;;4.10;99.90;;;;;;5054760;28;20533;-91
2023/03/06 09:18:02;;;;;;;7.22;1.83;;;3.50;99.90;;;;;;5037336;28;20036;-91
2023/03/06 09:20:28;;;;;;;6.38;2.03;;;3.50;99.90;;;;;;5054547;28;20150;-90
2023/03/06 09:22:53;;;;;;;6.55;1.88;;;3.70;99.90;;;;;;5054605;28;20076;-91
2023/03/06 09:25:22;;;;;;;6.18;1.92;;;3.80;99.90;;;;;;5054806;28;20510;-90
2023/03/06 09:27:49;;;;;;;8.35;1.83;;;3.90;99.90;;;;;;5037315;28;20050;-91
2023/03/06 09:30:15;;;;;;;7.28;1.45;;;4.00;99.90;;;;;;5037598;28;20081;-90
2023/03/06 09:32:41;;;;;;;2.28;0.90;;;4.10;99.90;;;;;;5036780;28;20499;-91
2023/03/06 09:35:07;;;;;;;8.10;1.13;;;4.20;99.90;;;;;;5054142;28;20044;-90
2023/03/06 09:37:33;;;;;;;5.38;1.20;;;4.20;99.90;;;;;;5053929;28;20139;-91
2023/03/06 09:39:58;;;;;;;5.20;1.05;;;4.30;99.90;;;;;;5035080;28;20135;-90
2023/03/06 09:42:25;;;;;;;5.35;1.20;;;4.30;99.90;;;;;;5037432;28;20084;-87
2023/03/06 09:45:07;;;;;;;4.78;1.20;;;4.40;99.90;;;;;;5037629;28;20418;-89
2023/03/06 09:47:36;;;;;;;6.82;1.30;;;4.40;99.90;;;;;;5038499;28;20078;-90
2023/03/06 09:50:20;;;;;;;4.47;1.27;;;4.50;99.90;;;;;;5055430;28;20048;-91
2023/03/06 09:53:03;;;;;;;4.07;1.17;;;4.50;99.90;;;;;;5055449;28;20545;-92
2023/03/06 09:55:32;;;;;;;5.30;1.23;;;4.60;99.90;;;;;;5038927;28;20136;-89
2023/03/06 09:58:12;;;;;;;8.40;1.33;;;4.60;99.90;;;;;;5037508;28;20036;-90
2023/03/06 10:00:45;;;;;;;4.00;1.35;;;4.70;99.90;;;;;;5037581;28;20109;-92
2023/03/06 10:03:21;;;;;;;;;;;4.80;99.90;;;;;;5038495;28;20500;-88
2023/03/06 10:05:56;;;;;;;6.55;1.08;;;4.80;99.90;;;;;;5034415;28;20372;-91
2023/03/06 10:08:36;;;;;;;8.23;1.67;;;4.90;99.90;;;;;;5034404;28;20499;-91
2023/03/06 10:11:07;;;;;;;2.83;0.70;;;4.90;99.90;;;;;;5034619;28;20163;-92
2023/03/06 10:13:36;;;;;;;5.88;1.08;;;5.00;99.90;;;;;;5034843;28;20087;-92
2023/03/06 10:16:18;;;;;;;8.10;1.10;;;5.00;99.90;;;;;;5034760;28;20124;-91
2023/03/06 10:18:44;;;;;;;3.13;0.70;;;5.10;99.90;;;;;;5034944;28;20045;-92
2023/03/06 10:21:22;;;;;;;3.65;0.70;;;5.10;99.90;;;;;;5034922;28;20099;-92
2023/03/06 10:24:03;;;;;;;3.80;0.57;;;5.20;99.90;;;;;;5051798;28;20063;-93
2023/03/06 10:26:43;;;;;;;5.05;0.63;;;5.20;99.90;;;;;;5034731;28;20049;-92
2023/03/06 10:29:10;;;;;;;2.95;0.60;;;5.20;99.90;;;;;;5035314;28;20068;-94
2023/03/06 10:31:43;;;;;;;4.38;0.60;;;5.20;99.90;;;;;;5054483;28;20056;-93
2023/03/06 10:34:30;;;;;;;4.07;0.60;;;5.40;99.90;;;;;;5055107;28;20052;-92
2023/03/06 10:37:01;;;;;;;4.03;0.47;;;5.30;99.90;;;;;;5053991;28;20052;-91
2023/03/06 10:39:28;;;;;;;1.98;0.40;;;5.30;99.90;;;;;;5054204;28;20143;-92
2023/03/06 10:41:54;;;;;;;4.63;0.60;;;5.30;99.90;;;;;;5054588;28;20119;-94
2023/03/06 10:44:22;;;;;;;1.60;0.55;;;5.40;99.90;;;;;;5054453;28;20200;-91
2023/03/06 10:46:50;;;;;;;3.08;0.55;;;5.40;99.90;;;;;;5054784;28;20136;-91
2023/03/06 10:49:26;;;;;;;2.83;0.80;;;5.30;99.90;;;;;;5053650;28;20068;-87
2023/03/06 10:51:56;;;;;;;4.45;0.77;;;5.40;99.90;;;;;;5041937;28;20024;-87
2023/03/06 10:54:22;;;;;;;8.48;0.70;;;5.40;99.90;;;;;;5050280;28;20080;-88
2023/03/06 10:56:48;;;;;;;2.63;0.40;;;5.40;99.90;;;;;;5034387;28;20079;-88
2023/03/06 10:59:17;;;;;;;6.20;0.60;;;5.30;99.90;;;;;;5046601;28;20047;-86
2023/03/06 11:01:47;;;;;;;1.58;0.38;;;5.20;99.90;;;;;;5039037;28;20036;-87
2023/03/06 11:04:14;;;;;;;2.97;0.75;;;5.30;99.90;;;;;;5038348;28;20044;-87
2023/03/06 11:06:41;;;;;;;1.85;0.50;;;5.30;99.90;;;;;;5049750;28;20427;-87
2023/03/06 11:09:22;;;;;;;5.63;0.60;;;4.50;99.90;;;;;;5051192;28;20611;-88
2023/03/06 11:11:49;;;;;;;10.18;1.10;;;5.30;99.90;;;;;;5051269;28;20059;-87
2023/03/06 11:14:18;;;;;;;4.70;0.63;;;5.40;99.90;;;;;;5052644;28;20067;-90
2023/03/06 11:16:51;;;;;;;2.67;0.45;;;5.50;99.90;;;;;;5052611;28;20048;-88
2023/03/06 11:19:24;;;;;;;8.65;0.85;;;5.60;99.90;;;;;;5053453;28;20587;-88
2023/03/06 11:22:15;;;;;;;4.22;0.70;;;5.60;99.90;;;;;;5053013;28;20040;-89
2023/03/06 11:24:46;;;;;;;4.03;0.55;;;5.60;99.90;;;;;;5032503;28;20059;-89
2023/03/06 11:27:29;;;;;;;4.35;0.63;;;5.60;99.90;;;;;;5033334;28;20044;-89
2023/03/06 11:29:56;;;;;;;2.30;0.38;;;5.90;99.90;;;;;;5032900;28;20529;-88
2023/03/06 11:32:27;;;;;;;3.83;0.60;;;6.00;99.90;;;;;;5033205;28;20041;-87
2023/03/06 11:34:58;;;;;;;4.70;0.40;;;6.00;99.90;;;;;;5049875;28;20041;-87
2023/03/06 11:37:30;;;;;;;4.18;0.47;;;6.00;99.90;;;;;;5034091;28;20049;-89
2023/03/06 11:40:11;;;;;;;2.10;0.40;;;6.10;99.90;;;;;;5032431;28;20052;-89
2023/03/06 11:42:58;;;;;;;6.18;0.60;;;6.10;99.90;;;;;;5032465;28;20403;-88
2023/03/06 11:45:36;;;;;;;2.05;0.55;;;6.10;99.90;;;;;;5036348;28;20087;-87
2023/03/06 11:48:13;;;;;;;2.83;0.35;;;6.00;99.90;;;;;;5036051;28;20047;-88
2023/03/06 11:50:49;;;;;;;5.50;0.50;;;5.90;99.90;;;;;;5036212;28;20056;-88
2023/03/06 11:56:41;;;;;;;5.43;0.57;;;5.90;99.90;;;;;;5052104;28;20048;-87
2023/03/06 11:59:30;;;;;;;6.15;0.57;;;5.90;99.90;;;;;;5050341;28;20056;-87
2023/03/06 12:02:19;;;;;;;3.03;0.70;;;6.10;99.90;;;;;;5035050;28;20064;-87
2023/03/06 12:05:08;;;;;;;0.95;0.28;;;6.40;99.90;;;;;;5034305;28;20433;-87
2023/03/06 12:07:48;;;;;;;6.28;0.80;;;6.40;99.90;;;;;;5037286;28;20067;-87
2023/03/06 12:10:22;;;;;;;3.35;0.40;;;6.30;99.90;;;;;;5036348;28;20048;-87
2023/03/06 12:12:47;;;;;;;4.43;0.90;;;6.10;99.90;;;;;;5037735;28;20056;-87
2023/03/06 12:15:20;;;;;;;4.53;0.60;;;6.10;99.90;;;;;;5036775;28;20123;-86
2023/03/06 12:18:02;;;;;;;3.88;0.57;;;6.00;99.90;;;;;;5037731;28;20511;-87
2023/03/06 12:20:42;;;;;;;8.98;0.73;;;5.80;99.90;;;;;;5070590;28;20095;-86
2023/03/06 12:23:27;;;;;;;6.93;0.80;;;5.70;99.90;;;;;;5036492;28;20522;-87
2023/03/06 12:26:12;;;;;;;2.30;0.52;;;5.70;99.90;;;;;;5037275;28;20063;-87
2023/03/06 12:29:04;;;;;;;5.25;0.70;;;5.70;99.90;;;;;;5036593;28;20052;-86
2023/03/06 12:31:44;;;;;;;6.00;1.08;;;5.60;99.90;;;;;;5037075;28;20045;-87
2023/03/06 12:34:25;;;;;;;3.10;0.70;;;5.60;99.90;;;;;;5036571;28;20048;-87
2023/03/06 12:37:26;;;;;;;4.45;0.70;;;5.70;99.90;;;;;;5046527;28;20403;-87
2023/03/06 12:40:08;;;;;;;4.10;0.80;;;5.90;99.90;;;;;;5036249;28;20049;-87
2023/03/06 12:43:03;;;;;;;2.15;0.68;;;6.00;99.90;;;;;;5036072;28;20075;-87
2023/03/06 12:45:30;;;;;;;4.20;0.77;;;6.10;99.90;;;;;;5036928;28;20037;-86
2023/03/06 12:47:56;;;;;;;8.65;0.73;;;6.20;99.90;;;;;;5036423;28;20143;-87
2023/03/06 12:50:24;;;;;;;5.40;0.45;;;6.20;99.90;;;;;;5035904;28;20032;-87
2023/03/06 12:52:53;;;;;;;5.93;0.68;;;6.20;99.90;;;;;;5053358;28;20522;-86
2023/03/06 12:55:20;;;;;;;4.85;0.68;;;6.20;99.90;;;;;;5034585;28;20048;-85
2023/03/06 12:57:47;;;;;;;7.13;0.50;;;6.20;99.90;;;;;;5035684;28;20040;-87
2023/03/06 13:00:32;;;;;;;1.63;0.50;;;6.20;99.90;;;;;;5036038;28;20496;-86
2023/03/06 13:03:05;;;;;;;5.88;0.77;;;6.20;99.90;;;;;;5035550;28;20062;-86
2023/03/06 13:05:51;;;;;;;2.50;0.60;;;6.10;99.90;;;;;;5036609;28;20434;-87
2023/03/06 13:08:49;;;;;;;7.75;0.70;;;6.10;99.90;;;;;;5035427;28;20055;-87